createdAt,value
2023-03-21T00:00:14.598Z,1013.77
2023-03-21T00:01:14.494Z,1013.77
2023-03-21T00:02:14.516Z,1013.78
2023-03-21T00:03:14.466Z,1013.75
2023-03-21T00:04:14.488Z,1013.73
2023-03-21T00:05:16.043Z,1013.76
2023-03-21T00:06:14.320Z,1013.76
2023-03-21T00:07:14.300Z,1013.74
2023-03-21T00:08:14.253Z,1013.74
2023-03-21T00:09:14.217Z,1013.71
2023-03-21T00:10:18.080Z,1013.77
2023-03-21T00:11:14.163Z,1013.74
2023-03-21T00:12:14.180Z,1013.72
2023-03-21T00:13:14.122Z,1013.70
2023-03-21T00:14:14.065Z,1013.70
2023-03-21T00:15:14.031Z,1013.68
2023-03-21T00:16:20.519Z,1013.71
2023-03-21T00:17:14.020Z,1013.71
2023-03-21T00:18:13.915Z,1013.70
2023-03-21T00:19:13.899Z,1013.68
2023-03-21T00:20:13.851Z,1013.68
2023-03-21T00:22:13.818Z,1013.69
2023-03-21T00:23:13.824Z,1013.69
2023-03-21T00:24:13.754Z,1013.69
2023-03-21T00:25:13.688Z,1013.67
2023-03-21T00:26:13.651Z,1013.64
2023-03-21T00:27:42.618Z,1013.64
2023-03-21T00:28:13.595Z,1013.63
2023-03-21T00:29:13.609Z,1013.65
2023-03-21T00:30:13.519Z,1013.59
2023-03-21T00:31:13.496Z,1013.58
2023-03-21T00:32:13.480Z,1013.61
2023-03-21T00:33:22.309Z,1013.60
2023-03-21T00:35:51.268Z,1013.59
2023-03-21T00:36:13.322Z,1013.64
2023-03-21T00:37:13.303Z,1013.64
2023-03-21T00:38:13.259Z,1013.65
2023-03-21T00:39:13.237Z,1013.65
2023-03-21T00:40:24.934Z,1013.62
2023-03-21T00:41:35.003Z,1013.65
2023-03-21T00:42:13.167Z,1013.65
2023-03-21T00:43:13.090Z,1013.65
2023-03-21T00:44:13.041Z,1013.65
2023-03-21T00:45:13.040Z,1013.67
2023-03-21T00:46:13.093Z,1013.67
2023-03-21T00:47:12.994Z,1013.65
2023-03-21T00:48:12.950Z,1013.68
2023-03-21T00:49:12.897Z,1013.67
2023-03-21T00:50:12.853Z,1013.66
2023-03-21T00:51:12.805Z,1013.64
2023-03-21T00:52:18.649Z,1013.62
2023-03-21T00:53:12.791Z,1013.64
2023-03-21T00:54:12.726Z,1013.65
2023-03-21T00:55:12.687Z,1013.63
2023-03-21T00:56:12.676Z,1013.61
2023-03-21T00:57:12.612Z,1013.64
2023-03-21T00:58:12.671Z,1013.64
2023-03-21T00:59:12.575Z,1013.63
2023-03-21T01:00:12.530Z,1013.63
2023-03-21T01:01:12.609Z,1013.66
2023-03-21T01:02:12.484Z,1013.63
2023-03-21T01:03:23.793Z,1013.64
2023-03-21T01:04:12.429Z,1013.63
2023-03-21T01:05:12.368Z,1013.61
2023-03-21T01:06:12.308Z,1013.61
2023-03-21T01:07:12.287Z,1013.58
2023-03-21T01:08:24.509Z,1013.58
2023-03-21T01:09:12.208Z,1013.60
2023-03-21T01:10:12.229Z,1013.60
2023-03-21T01:11:12.153Z,1013.60
2023-03-21T01:12:12.098Z,1013.60
2023-03-21T01:13:12.085Z,1013.62
2023-03-21T01:14:22.033Z,1013.58
2023-03-21T01:15:12.010Z,1013.59
2023-03-21T01:16:12.044Z,1013.61
2023-03-21T01:17:11.924Z,1013.59
2023-03-21T01:18:11.901Z,1013.59
2023-03-21T01:19:22.048Z,1013.57
2023-03-21T01:20:11.844Z,1013.58
2023-03-21T01:21:11.792Z,1013.59
2023-03-21T01:22:11.840Z,1013.56
2023-03-21T01:23:11.760Z,1013.54
2023-03-21T01:24:11.696Z,1013.57
2023-03-21T01:25:21.977Z,1013.51
2023-03-21T01:26:11.633Z,1013.54
2023-03-21T01:27:11.603Z,1013.57
2023-03-21T01:28:11.602Z,1013.55
2023-03-21T01:29:11.517Z,1013.54
2023-03-21T01:30:19.606Z,1013.51
2023-03-21T01:31:11.466Z,1013.53
2023-03-21T01:32:11.439Z,1013.49
2023-03-21T01:33:11.428Z,1013.49
2023-03-21T01:34:11.406Z,1013.49
2023-03-21T01:35:11.370Z,1013.48
2023-03-21T01:36:13.430Z,1013.47
2023-03-21T01:37:11.262Z,1013.47
2023-03-21T01:38:11.223Z,1013.46
2023-03-21T01:39:11.195Z,1013.50
2023-03-21T01:40:11.250Z,1013.48
2023-03-21T01:41:19.277Z,1013.48
2023-03-21T01:42:11.080Z,1013.47
2023-03-21T01:43:11.055Z,1013.49
2023-03-21T01:44:11.020Z,1013.46
2023-03-21T01:45:10.973Z,1013.49
2023-03-21T01:46:11.080Z,1013.49
2023-03-21T01:47:12.469Z,1013.48
2023-03-21T01:48:10.904Z,1013.45
2023-03-21T01:49:10.841Z,1013.47
2023-03-21T01:50:10.831Z,1013.44
2023-03-21T01:51:10.770Z,1013.48
2023-03-21T01:52:15.164Z,1013.44
2023-03-21T01:53:10.741Z,1013.48
2023-03-21T01:54:10.683Z,1013.44
2023-03-21T01:55:10.646Z,1013.45
2023-03-21T01:56:10.612Z,1013.45
2023-03-21T01:57:10.568Z,1013.44
2023-03-21T01:58:10.644Z,1013.43
2023-03-21T01:59:10.513Z,1013.47
2023-03-21T02:00:10.459Z,1013.44
2023-03-21T02:01:10.475Z,1013.45
2023-03-21T02:02:10.403Z,1013.49
2023-03-21T02:03:15.209Z,1013.46
2023-03-21T02:04:10.339Z,1013.50
2023-03-21T02:05:10.323Z,1013.45
2023-03-21T02:06:10.263Z,1013.47
2023-03-21T02:07:10.253Z,1013.44
2023-03-21T02:08:10.191Z,1013.43
2023-03-21T02:09:10.213Z,1013.44
2023-03-21T02:10:10.129Z,1013.47
2023-03-21T02:11:10.156Z,1013.45
2023-03-21T02:12:10.067Z,1013.47
2023-03-21T02:13:10.033Z,1013.44
2023-03-21T02:14:11.536Z,1013.46
2023-03-21T02:15:09.974Z,1013.45
2023-03-21T02:16:09.924Z,1013.41
2023-03-21T02:17:09.889Z,1013.38
2023-03-21T02:18:09.869Z,1013.38
2023-03-21T02:19:09.855Z,1013.37
2023-03-21T02:20:09.908Z,1013.36
2023-03-21T02:21:09.746Z,1013.33
2023-03-21T02:22:09.709Z,1013.35
2023-03-21T02:23:09.695Z,1013.32
2023-03-21T02:24:09.642Z,1013.29
2023-03-21T02:25:21.332Z,1013.33
2023-03-21T02:26:09.659Z,1013.29
2023-03-21T02:27:09.561Z,1013.29
2023-03-21T02:28:09.517Z,1013.31
2023-03-21T02:29:09.479Z,1013.30
2023-03-21T02:30:09.942Z,1013.26
2023-03-21T02:31:09.455Z,1013.24
2023-03-21T02:32:20.326Z,1013.27
2023-03-21T02:33:09.347Z,1013.26
2023-03-21T02:34:09.315Z,1013.24
2023-03-21T02:35:09.292Z,1013.25
2023-03-21T02:36:14.485Z,1013.23
2023-03-21T02:37:09.242Z,1013.28
2023-03-21T02:38:09.231Z,1013.27
2023-03-21T02:39:09.126Z,1013.25
2023-03-21T02:40:09.105Z,1013.31
2023-03-21T02:41:18.009Z,1013.27
2023-03-21T02:42:09.051Z,1013.27
2023-03-21T02:43:16.997Z,1013.28
2023-03-21T02:44:09.031Z,1013.29
2023-03-21T02:45:08.928Z,1013.27
2023-03-21T02:46:08.964Z,1013.25
2023-03-21T02:47:08.891Z,1013.28
2023-03-21T02:48:14.583Z,1013.26
2023-03-21T02:49:08.905Z,1013.25
2023-03-21T02:50:08.841Z,1013.27
2023-03-21T02:51:08.729Z,1013.31
2023-03-21T02:52:15.550Z,1013.27
2023-03-21T02:53:08.667Z,1013.24
2023-03-21T02:55:08.598Z,1013.22
2023-03-21T02:56:08.609Z,1013.21
2023-03-21T02:57:08.522Z,1013.27
2023-03-21T02:58:13.217Z,1013.27
2023-03-21T02:59:08.497Z,1013.26
2023-03-21T03:00:16.240Z,1013.29
2023-03-21T03:01:08.486Z,1013.28
2023-03-21T03:02:08.393Z,1013.31
2023-03-21T03:03:11.501Z,1013.32
2023-03-21T03:04:08.318Z,1013.33
2023-03-21T03:05:18.027Z,1013.29
2023-03-21T03:06:08.217Z,1013.29
2023-03-21T03:07:08.236Z,1013.30
2023-03-21T03:08:08.173Z,1013.27
2023-03-21T03:09:08.185Z,1013.28
2023-03-21T03:10:08.100Z,1013.25
2023-03-21T03:11:08.048Z,1013.26
2023-03-21T03:12:08.052Z,1013.27
2023-03-21T03:13:08.086Z,1013.26
2023-03-21T03:14:31.647Z,1013.25
2023-03-21T03:15:07.994Z,1013.22
2023-03-21T03:16:07.916Z,1013.26
2023-03-21T03:17:07.864Z,1013.24
2023-03-21T03:18:07.833Z,1013.26
2023-03-21T03:19:07.806Z,1013.23
2023-03-21T03:20:16.147Z,1013.26
2023-03-21T03:21:07.799Z,1013.25
2023-03-21T03:22:07.699Z,1013.27
2023-03-21T03:23:07.670Z,1013.28
2023-03-21T03:24:07.648Z,1013.29
2023-03-21T03:25:19.708Z,1013.29
2023-03-21T03:26:07.543Z,1013.29
2023-03-21T03:27:07.796Z,1013.34
2023-03-21T03:28:07.476Z,1013.29
2023-03-21T03:29:07.436Z,1013.33
2023-03-21T03:30:07.418Z,1013.33
2023-03-21T03:31:10.076Z,1013.31
2023-03-21T03:32:07.435Z,1013.32
2023-03-21T03:33:07.380Z,1013.32
2023-03-21T03:34:07.277Z,1013.28
2023-03-21T03:35:07.258Z,1013.29
2023-03-21T03:36:09.260Z,1013.29
2023-03-21T03:37:07.177Z,1013.28
2023-03-21T03:38:07.137Z,1013.26
2023-03-21T03:39:07.167Z,1013.28
2023-03-21T03:40:07.056Z,1013.28
2023-03-21T03:41:07.060Z,1013.29
2023-03-21T03:42:18.347Z,1013.30
2023-03-21T03:43:06.956Z,1013.28
2023-03-21T03:44:06.989Z,1013.27
2023-03-21T03:45:06.950Z,1013.28
2023-03-21T03:46:06.855Z,1013.28
2023-03-21T03:47:06.817Z,1013.28
2023-03-21T03:48:06.863Z,1013.28
2023-03-21T03:49:06.753Z,1013.26
2023-03-21T03:50:06.778Z,1013.26
2023-03-21T03:51:06.686Z,1013.24
2023-03-21T03:52:06.764Z,1013.24
2023-03-21T03:53:16.182Z,1013.26
2023-03-21T03:54:06.591Z,1013.24
2023-03-21T03:55:06.651Z,1013.25
2023-03-21T03:56:06.528Z,1013.25
2023-03-21T03:57:06.493Z,1013.27
2023-03-21T03:58:16.196Z,1013.27
2023-03-21T03:59:06.402Z,1013.23
2023-03-21T04:00:06.395Z,1013.27
2023-03-21T04:01:06.410Z,1013.26
2023-03-21T04:02:06.390Z,1013.24
2023-03-21T04:03:06.378Z,1013.29
2023-03-21T04:04:12.994Z,1013.28
2023-03-21T04:05:06.207Z,1013.26
2023-03-21T04:06:06.194Z,1013.25
2023-03-21T04:07:06.207Z,1013.28
2023-03-21T04:08:06.132Z,1013.30
2023-03-21T04:09:18.773Z,1013.31
2023-03-21T04:10:06.053Z,1013.27
2023-03-21T04:11:06.008Z,1013.28
2023-03-21T04:12:05.962Z,1013.27
2023-03-21T04:13:06.014Z,1013.24
2023-03-21T04:14:05.901Z,1013.21
2023-03-21T04:15:10.817Z,1013.17
2023-03-21T04:16:05.968Z,1013.22
2023-03-21T04:17:05.818Z,1013.20
2023-03-21T04:18:05.812Z,1013.18
2023-03-21T04:19:05.839Z,1013.19
2023-03-21T04:20:12.132Z,1013.19
2023-03-21T04:21:05.671Z,1013.19
2023-03-21T04:22:05.652Z,1013.20
2023-03-21T04:23:05.704Z,1013.18
2023-03-21T04:24:05.584Z,1013.22
2023-03-21T04:25:05.552Z,1013.21
2023-03-21T04:26:05.524Z,1013.22
2023-03-21T04:27:05.458Z,1013.22
2023-03-21T04:28:05.429Z,1013.25
2023-03-21T04:29:05.451Z,1013.22
2023-03-21T04:30:05.364Z,1013.20
2023-03-21T04:31:13.517Z,1013.17
2023-03-21T04:32:05.356Z,1013.18
2023-03-21T04:33:05.262Z,1013.17
2023-03-21T04:34:05.318Z,1013.12
2023-03-21T04:35:05.224Z,1013.16
2023-03-21T04:36:05.277Z,1013.15
2023-03-21T04:37:05.146Z,1013.16
2023-03-21T04:38:05.096Z,1013.17
2023-03-21T04:39:05.080Z,1013.17
2023-03-21T04:40:05.109Z,1013.18
2023-03-21T04:41:04.982Z,1013.16
2023-03-21T04:42:04.996Z,1013.19
2023-03-21T04:43:04.931Z,1013.23
2023-03-21T04:44:04.897Z,1013.19
2023-03-21T04:45:04.846Z,1013.19
2023-03-21T04:46:04.883Z,1013.15
2023-03-21T04:47:04.793Z,1013.15
2023-03-21T04:48:04.836Z,1013.19
2023-03-21T04:49:04.724Z,1013.16
2023-03-21T04:50:04.684Z,1013.14
2023-03-21T04:51:04.698Z,1013.18
2023-03-21T04:52:04.685Z,1013.15
2023-03-21T04:53:04.594Z,1013.15
2023-03-21T04:54:04.542Z,1013.15
2023-03-21T04:55:04.534Z,1013.20
2023-03-21T04:56:04.465Z,1013.19
2023-03-21T04:57:04.449Z,1013.18
2023-03-21T04:58:04.470Z,1013.15
2023-03-21T04:59:04.363Z,1013.17
2023-03-21T05:00:04.332Z,1013.14
2023-03-21T05:01:04.326Z,1013.14
2023-03-21T05:02:04.253Z,1013.18
2023-03-21T05:03:04.230Z,1013.14
2023-03-21T05:04:04.385Z,1013.17
2023-03-21T05:05:04.168Z,1013.11
2023-03-21T05:06:04.128Z,1013.14
2023-03-21T05:07:04.089Z,1013.15
2023-03-21T05:08:04.056Z,1013.16
2023-03-21T05:09:04.019Z,1013.13
2023-03-21T05:10:04.043Z,1013.10
2023-03-21T05:11:03.954Z,1013.14
2023-03-21T05:12:03.920Z,1013.14
2023-03-21T05:13:03.885Z,1013.16
2023-03-21T05:14:03.848Z,1013.12
2023-03-21T05:15:03.816Z,1013.07
2023-03-21T05:16:03.855Z,1013.10
2023-03-21T05:17:03.886Z,1013.10
2023-03-21T05:18:03.715Z,1013.08
2023-03-21T05:19:03.685Z,1013.13
2023-03-21T05:20:03.647Z,1013.10
2023-03-21T05:21:03.611Z,1013.10
2023-03-21T05:22:03.632Z,1013.12
2023-03-21T05:23:03.539Z,1013.10
2023-03-21T05:24:03.576Z,1013.10
2023-03-21T05:25:03.476Z,1013.05
2023-03-21T05:26:03.442Z,1013.11
2023-03-21T05:27:03.413Z,1013.09
2023-03-21T05:28:03.422Z,1013.13
2023-03-21T05:29:03.373Z,1013.09
2023-03-21T05:30:03.299Z,1013.09
2023-03-21T05:31:03.289Z,1013.09
2023-03-21T05:32:03.240Z,1013.14
2023-03-21T05:33:03.206Z,1013.09
2023-03-21T05:34:03.224Z,1013.10
2023-03-21T05:35:03.144Z,1013.09
2023-03-21T05:36:03.101Z,1013.11
2023-03-21T05:37:03.070Z,1013.10
2023-03-21T05:38:03.035Z,1013.12
2023-03-21T05:39:02.991Z,1013.13
2023-03-21T05:40:03.025Z,1013.11
2023-03-21T05:41:02.931Z,1013.13
2023-03-21T05:42:02.900Z,1013.12
2023-03-21T05:43:02.859Z,1013.12
2023-03-21T05:44:02.834Z,1013.10
2023-03-21T05:45:02.812Z,1013.12
2023-03-21T05:46:02.855Z,1013.15
2023-03-21T05:47:02.721Z,1013.13
2023-03-21T05:48:02.721Z,1013.20
2023-03-21T05:49:02.667Z,1013.14
2023-03-21T05:50:02.757Z,1013.18
2023-03-21T05:51:02.657Z,1013.17
2023-03-21T05:52:02.569Z,1013.17
2023-03-21T05:53:02.520Z,1013.17
2023-03-21T05:54:02.500Z,1013.20
2023-03-21T05:55:02.473Z,1013.21
2023-03-21T05:56:02.424Z,1013.20
2023-03-21T05:57:02.452Z,1013.20
2023-03-21T05:58:02.358Z,1013.20
2023-03-21T05:59:02.344Z,1013.16
2023-03-21T06:00:02.288Z,1013.16
2023-03-21T06:01:02.259Z,1013.19
2023-03-21T06:02:02.238Z,1013.21
2023-03-21T06:03:02.316Z,1013.21
2023-03-21T06:04:02.185Z,1013.21
2023-03-21T06:05:02.122Z,1013.22
2023-03-21T06:06:09.772Z,1013.21
2023-03-21T06:07:02.044Z,1013.24
2023-03-21T06:08:02.012Z,1013.21
2023-03-21T06:09:02.043Z,1013.25
2023-03-21T06:10:02.017Z,1013.26
2023-03-21T06:11:01.914Z,1013.25
2023-03-21T06:12:01.878Z,1013.25
2023-03-21T06:13:01.844Z,1013.25
2023-03-21T06:14:01.818Z,1013.24
2023-03-21T06:15:01.840Z,1013.29
2023-03-21T06:16:01.867Z,1013.29
2023-03-21T06:17:01.716Z,1013.29
2023-03-21T06:18:01.680Z,1013.28
2023-03-21T06:19:01.651Z,1013.31
2023-03-21T06:20:01.609Z,1013.32
2023-03-21T06:21:01.629Z,1013.33
2023-03-21T06:22:01.553Z,1013.32
2023-03-21T06:23:01.557Z,1013.34
2023-03-21T06:24:01.534Z,1013.29
2023-03-21T06:25:01.448Z,1013.29
2023-03-21T06:26:01.404Z,1013.33
2023-03-21T06:27:03.526Z,1013.30
2023-03-21T06:28:01.342Z,1013.33
2023-03-21T06:29:01.380Z,1013.32
2023-03-21T06:30:01.280Z,1013.27
2023-03-21T06:31:01.282Z,1013.34
2023-03-21T06:32:01.209Z,1013.31
2023-03-21T06:33:01.170Z,1013.32
2023-03-21T06:34:01.195Z,1013.26
2023-03-21T06:35:01.101Z,1013.29
2023-03-21T06:36:01.093Z,1013.31
2023-03-21T06:37:01.049Z,1013.30
2023-03-21T06:38:01.025Z,1013.32
2023-03-21T06:39:02.558Z,1013.32
2023-03-21T06:40:00.935Z,1013.34
2023-03-21T06:41:00.904Z,1013.32
2023-03-21T06:42:01.783Z,1013.32
2023-03-21T06:43:00.858Z,1013.32
2023-03-21T06:44:00.806Z,1013.31
2023-03-21T06:45:00.824Z,1013.32
2023-03-21T06:46:00.817Z,1013.31
2023-03-21T06:47:01.344Z,1013.29
2023-03-21T06:48:00.716Z,1013.30
2023-03-21T06:49:00.644Z,1013.27
2023-03-21T06:50:00.601Z,1013.26
2023-03-21T06:51:00.629Z,1013.24
2023-03-21T06:52:00.548Z,1013.26
2023-03-21T06:53:00.507Z,1013.29
2023-03-21T06:54:00.475Z,1013.29
2023-03-21T06:55:00.512Z,1013.32
2023-03-21T06:56:00.409Z,1013.30
2023-03-21T06:57:00.421Z,1013.32
2023-03-21T06:58:00.335Z,1013.35
2023-03-21T06:59:00.306Z,1013.34
2023-03-21T07:00:00.268Z,1013.32
2023-03-21T07:01:00.471Z,1013.34
2023-03-21T07:02:00.271Z,1013.34
2023-03-21T07:03:00.795Z,1013.33
2023-03-21T07:04:00.153Z,1013.35
2023-03-21T07:05:00.145Z,1013.32
2023-03-21T07:06:00.106Z,1013.34
2023-03-21T07:07:00.046Z,1013.36
2023-03-21T07:08:00.087Z,1013.35
2023-03-21T07:08:59.976Z,1013.38
2023-03-21T07:09:59.938Z,1013.33
2023-03-21T07:10:59.919Z,1013.34
2023-03-21T07:11:59.879Z,1013.32
2023-03-21T07:12:59.857Z,1013.29
2023-03-21T07:13:59.866Z,1013.32
2023-03-21T07:14:59.777Z,1013.34
2023-03-21T07:15:59.816Z,1013.31
2023-03-21T07:16:59.708Z,1013.35
2023-03-21T07:17:59.688Z,1013.36
2023-03-21T07:18:59.639Z,1013.38
2023-03-21T07:19:59.670Z,1013.37
2023-03-21T07:20:59.591Z,1013.35
2023-03-21T07:21:59.549Z,1013.33
2023-03-21T07:22:59.525Z,1013.34
2023-03-21T07:23:59.478Z,1013.34
2023-03-21T07:25:06.325Z,1013.35
2023-03-21T07:26:06.174Z,1013.31
2023-03-21T07:26:59.384Z,1013.34
2023-03-21T07:27:59.352Z,1013.33
2023-03-21T07:28:59.400Z,1013.31
2023-03-21T07:29:59.299Z,1013.35
2023-03-21T07:30:59.251Z,1013.38
2023-03-21T07:31:59.316Z,1013.40
2023-03-21T07:32:59.190Z,1013.38
2023-03-21T07:33:59.155Z,1013.38
2023-03-21T07:35:01.569Z,1013.36
2023-03-21T07:35:59.137Z,1013.35
2023-03-21T07:36:59.062Z,1013.37
2023-03-21T07:37:59.081Z,1013.35
2023-03-21T07:38:59.106Z,1013.33
2023-03-21T07:39:58.954Z,1013.35
2023-03-21T07:40:58.924Z,1013.35
2023-03-21T07:41:58.895Z,1013.37
2023-03-21T07:42:58.921Z,1013.38
2023-03-21T07:43:58.900Z,1013.36
2023-03-21T07:44:58.825Z,1013.38
2023-03-21T07:45:58.814Z,1013.35
2023-03-21T07:46:58.727Z,1013.40
2023-03-21T07:48:02.743Z,1013.41
2023-03-21T07:48:59.230Z,1013.38
2023-03-21T07:49:58.701Z,1013.39
2023-03-21T07:50:58.612Z,1013.38
2023-03-21T07:51:58.580Z,1013.44
2023-03-21T07:52:58.541Z,1013.39
2023-03-21T07:53:58.501Z,1013.40
2023-03-21T07:54:58.485Z,1013.39
2023-03-21T07:55:58.530Z,1013.39
2023-03-21T07:56:58.412Z,1013.36
2023-03-21T07:57:58.368Z,1013.41
2023-03-21T07:58:58.380Z,1013.36
2023-03-21T07:59:58.312Z,1013.35
2023-03-21T08:00:58.271Z,1013.39
2023-03-21T08:01:58.378Z,1013.35
2023-03-21T08:02:59.125Z,1013.33
2023-03-21T08:03:58.261Z,1013.33
2023-03-21T08:04:58.141Z,1013.36
2023-03-21T08:05:58.115Z,1013.34
2023-03-21T08:06:58.080Z,1013.32
2023-03-21T08:07:58.087Z,1013.30
2023-03-21T08:08:58.021Z,1013.30
2023-03-21T08:09:58.036Z,1013.31
2023-03-21T08:10:57.963Z,1013.25
2023-03-21T08:11:57.923Z,1013.29
2023-03-21T08:12:57.898Z,1013.32
2023-03-21T08:13:57.948Z,1013.28
2023-03-21T08:15:00.638Z,1013.31
2023-03-21T08:15:57.787Z,1013.28
2023-03-21T08:16:57.840Z,1013.31
2023-03-21T08:17:57.728Z,1013.31
2023-03-21T08:18:57.697Z,1013.29
2023-03-21T08:19:57.721Z,1013.35
2023-03-21T08:20:57.630Z,1013.40
2023-03-21T08:21:57.602Z,1013.34
2023-03-21T08:22:57.586Z,1013.35
2023-03-21T08:23:57.539Z,1013.35
2023-03-21T08:24:57.502Z,1013.37
2023-03-21T08:25:57.532Z,1013.37
2023-03-21T08:26:57.458Z,1013.37
2023-03-21T08:27:57.411Z,1013.38
2023-03-21T08:28:57.368Z,1013.36
2023-03-21T08:29:57.341Z,1013.37
2023-03-21T08:30:57.351Z,1013.36
2023-03-21T08:31:57.331Z,1013.38
2023-03-21T08:33:00.088Z,1013.38
2023-03-21T08:33:57.212Z,1013.37
2023-03-21T08:34:57.190Z,1013.35
2023-03-21T08:35:57.159Z,1013.38
2023-03-21T08:36:57.200Z,1013.39
2023-03-21T08:37:57.097Z,1013.39
2023-03-21T08:38:57.195Z,1013.39
2023-03-21T08:39:57.039Z,1013.39
2023-03-21T08:40:59.199Z,1013.42
2023-03-21T08:41:56.972Z,1013.39
2023-03-21T08:42:57.001Z,1013.37
2023-03-21T08:43:56.896Z,1013.37
2023-03-21T08:44:56.877Z,1013.36
2023-03-21T08:45:56.888Z,1013.40
2023-03-21T08:46:56.798Z,1013.33
2023-03-21T08:47:56.842Z,1013.34
2023-03-21T08:48:56.778Z,1013.34
2023-03-21T08:49:59.046Z,1013.35
2023-03-21T08:50:56.669Z,1013.38
2023-03-21T08:51:56.649Z,1013.35
2023-03-21T08:52:56.632Z,1013.35
2023-03-21T08:53:56.569Z,1013.36
2023-03-21T08:55:00.198Z,1013.41
2023-03-21T08:55:56.584Z,1013.36
2023-03-21T08:56:56.499Z,1013.35
2023-03-21T08:57:56.463Z,1013.39
2023-03-21T08:58:56.413Z,1013.36
2023-03-21T08:59:57.322Z,1013.34
2023-03-21T09:00:56.422Z,1013.35
2023-03-21T09:01:56.395Z,1013.38
2023-03-21T09:02:56.289Z,1013.38
2023-03-21T09:03:56.263Z,1013.37
2023-03-21T09:04:56.279Z,1013.37
2023-03-21T09:05:56.766Z,1013.43
2023-03-21T09:06:56.367Z,1013.40
2023-03-21T09:07:56.146Z,1013.41
2023-03-21T09:08:56.130Z,1013.40
2023-03-21T09:10:18.641Z,1013.39
2023-03-21T09:10:56.039Z,1013.35
2023-03-21T09:11:56.020Z,1013.37
2023-03-21T09:12:56.035Z,1013.37
2023-03-21T09:13:55.965Z,1013.38
2023-03-21T09:14:55.928Z,1013.37
2023-03-21T09:15:56.756Z,1013.43
2023-03-21T09:16:55.855Z,1013.41
2023-03-21T09:17:55.894Z,1013.43
2023-03-21T09:18:55.806Z,1013.45
2023-03-21T09:19:55.763Z,1013.44
2023-03-21T09:20:55.734Z,1013.41
2023-03-21T09:21:55.808Z,1013.44
2023-03-21T09:22:55.806Z,1013.45
2023-03-21T09:23:55.643Z,1013.41
2023-03-21T09:24:55.615Z,1013.40
2023-03-21T09:25:57.707Z,1013.38
2023-03-21T09:26:55.550Z,1013.37
2023-03-21T09:27:55.511Z,1013.43
2023-03-21T09:28:55.527Z,1013.45
2023-03-21T09:29:55.448Z,1013.41
2023-03-21T09:30:55.486Z,1013.42
2023-03-21T09:31:55.392Z,1013.44
2023-03-21T09:32:55.361Z,1013.44
2023-03-21T09:33:55.389Z,1013.43
2023-03-21T09:34:55.365Z,1013.43
2023-03-21T09:35:55.313Z,1013.42
2023-03-21T09:36:55.235Z,1013.45
2023-03-21T09:37:55.226Z,1013.43
2023-03-21T09:38:55.170Z,1013.42
2023-03-21T09:39:55.137Z,1013.43
2023-03-21T09:40:55.181Z,1013.42
2023-03-21T09:41:55.114Z,1013.41
2023-03-21T09:42:55.050Z,1013.41
2023-03-21T09:43:55.021Z,1013.41
2023-03-21T09:44:54.978Z,1013.45
2023-03-21T09:45:54.968Z,1013.42
2023-03-21T09:46:55.052Z,1013.43
2023-03-21T09:47:54.955Z,1013.45
2023-03-21T09:48:57.427Z,1013.41
2023-03-21T09:50:01.732Z,1013.40
2023-03-21T09:50:54.799Z,1013.37
2023-03-21T09:51:54.763Z,1013.38
2023-03-21T09:52:54.884Z,1013.36
2023-03-21T09:53:56.951Z,1013.36
2023-03-21T09:54:54.674Z,1013.35
2023-03-21T09:55:54.659Z,1013.33
2023-03-21T09:56:54.647Z,1013.28
2023-03-21T09:57:54.579Z,1013.30
2023-03-21T09:58:54.604Z,1013.32
2023-03-21T09:59:55.235Z,1013.29
2023-03-21T10:00:54.520Z,1013.27
2023-03-21T10:01:54.454Z,1013.30
2023-03-21T10:02:57.294Z,1013.27
2023-03-21T10:03:54.396Z,1013.22
2023-03-21T10:04:54.503Z,1013.25
2023-03-21T10:05:54.333Z,1013.26
2023-03-21T10:06:54.305Z,1013.23
2023-03-21T10:07:54.271Z,1013.19
2023-03-21T10:08:56.665Z,1013.17
2023-03-21T10:09:54.216Z,1013.20
2023-03-21T10:10:54.267Z,1013.17
2023-03-21T10:11:54.184Z,1013.18
2023-03-21T10:12:54.133Z,1013.18
2023-03-21T10:13:54.099Z,1013.15
2023-03-21T10:14:55.955Z,1013.12
2023-03-21T10:15:54.071Z,1013.13
2023-03-21T10:16:54.169Z,1013.12
2023-03-21T10:17:53.972Z,1013.14
2023-03-21T10:18:53.945Z,1013.10
2023-03-21T10:19:53.909Z,1013.10
2023-03-21T10:20:53.881Z,1013.10
2023-03-21T10:22:03.072Z,1013.11
2023-03-21T10:22:53.876Z,1013.13
2023-03-21T10:23:53.798Z,1013.11
2023-03-21T10:24:53.777Z,1013.11
2023-03-21T10:25:53.799Z,1013.11
2023-03-21T10:26:53.715Z,1013.11
2023-03-21T10:27:53.680Z,1013.05
2023-03-21T10:28:53.833Z,1013.08
2023-03-21T10:29:53.623Z,1013.07
2023-03-21T10:30:53.594Z,1013.06
2023-03-21T10:31:53.592Z,1013.06
2023-03-21T10:32:53.600Z,1013.05
2023-03-21T10:33:53.508Z,1013.06
2023-03-21T10:34:53.587Z,1013.02
2023-03-21T10:35:53.520Z,1013.02
2023-03-21T10:36:53.452Z,1012.98
2023-03-21T10:37:53.384Z,1012.98
2023-03-21T10:38:53.350Z,1012.95
2023-03-21T10:39:53.375Z,1012.96
2023-03-21T10:40:53.295Z,1012.96
2023-03-21T10:41:53.273Z,1012.99
2023-03-21T10:42:53.251Z,1012.98
2023-03-21T10:43:53.212Z,1012.97
2023-03-21T10:44:53.172Z,1012.95
2023-03-21T10:45:53.258Z,1012.94
2023-03-21T10:46:53.349Z,1012.93
2023-03-21T10:47:53.202Z,1012.93
2023-03-21T10:48:53.128Z,1012.94
2023-03-21T10:50:09.811Z,1012.94
2023-03-21T10:50:53.047Z,1012.93
2023-03-21T10:51:53.415Z,1012.94
2023-03-21T10:52:52.939Z,1012.96
2023-03-21T10:53:52.904Z,1012.95
2023-03-21T10:54:52.877Z,1012.92
2023-03-21T10:55:52.854Z,1012.89
2023-03-21T10:56:52.826Z,1012.93
2023-03-21T10:57:52.920Z,1012.91
2023-03-21T10:58:52.776Z,1012.91
2023-03-21T10:59:52.756Z,1012.89
2023-03-21T11:00:52.781Z,1012.84
2023-03-21T11:01:52.672Z,1012.87
2023-03-21T11:02:52.715Z,1012.88
2023-03-21T11:03:52.671Z,1012.89
2023-03-21T11:04:52.607Z,1012.86
2023-03-21T11:05:52.569Z,1012.85
2023-03-21T11:06:52.526Z,1012.79
2023-03-21T11:07:52.492Z,1012.82
2023-03-21T11:08:53.356Z,1012.82
2023-03-21T11:09:53.613Z,1012.83
2023-03-21T11:10:52.414Z,1012.80
2023-03-21T11:11:52.392Z,1012.84
2023-03-21T11:12:52.354Z,1012.82
2023-03-21T11:13:52.325Z,1012.83
2023-03-21T11:14:52.314Z,1012.78
2023-03-21T11:15:52.337Z,1012.77
2023-03-21T11:16:52.306Z,1012.78
2023-03-21T11:17:52.216Z,1012.76
2023-03-21T11:18:52.214Z,1012.75
2023-03-21T11:19:52.150Z,1012.74
2023-03-21T11:20:52.134Z,1012.71
2023-03-21T11:21:52.149Z,1012.71
2023-03-21T11:22:52.076Z,1012.69
2023-03-21T11:23:52.063Z,1012.67
2023-03-21T11:24:52.009Z,1012.67
2023-03-21T11:25:51.990Z,1012.66
2023-03-21T11:26:51.954Z,1012.66
2023-03-21T11:27:51.995Z,1012.61
2023-03-21T11:28:51.894Z,1012.60
2023-03-21T11:29:51.905Z,1012.61
2023-03-21T11:30:51.904Z,1012.57
2023-03-21T11:31:51.816Z,1012.56
2023-03-21T11:32:51.782Z,1012.60
2023-03-21T11:33:51.829Z,1012.59
2023-03-21T11:34:51.734Z,1012.58
2023-03-21T11:35:51.749Z,1012.56
2023-03-21T11:36:51.686Z,1012.53
2023-03-21T11:37:51.651Z,1012.54
2023-03-21T11:38:51.616Z,1012.54
2023-03-21T11:39:51.648Z,1012.53
2023-03-21T11:40:51.561Z,1012.52
2023-03-21T11:41:51.535Z,1012.52
2023-03-21T11:42:51.508Z,1012.49
2023-03-21T11:43:51.469Z,1012.49
2023-03-21T11:44:51.443Z,1012.44
2023-03-21T11:45:51.951Z,1012.46
2023-03-21T11:46:53.256Z,1012.44
2023-03-21T11:47:51.396Z,1012.43
2023-03-21T11:48:51.336Z,1012.43
2023-03-21T11:49:55.713Z,1012.43
2023-03-21T11:50:51.282Z,1012.39
2023-03-21T11:51:51.303Z,1012.39
2023-03-21T11:52:51.221Z,1012.41
2023-03-21T11:53:51.189Z,1012.38
2023-03-21T11:54:51.169Z,1012.42
2023-03-21T11:55:51.137Z,1012.35
2023-03-21T11:56:51.110Z,1012.36
2023-03-21T11:57:51.438Z,1012.37
2023-03-21T11:58:51.091Z,1012.36
2023-03-21T11:59:51.097Z,1012.33
2023-03-21T12:00:51.008Z,1012.35
2023-03-21T12:01:50.988Z,1012.30
2023-03-21T12:02:51.018Z,1012.29
2023-03-21T12:03:51.958Z,1012.24
2023-03-21T12:04:50.880Z,1012.30
2023-03-21T12:07:04.663Z,1012.26
2023-03-21T12:08:04.629Z,1012.23
2023-03-21T12:09:04.851Z,1012.28